M I D A S
Marine Information and Data Acquisition System
Tripno 665 of the Zeeleeuw from 2004-03-11 07:14:48 to 2004-03-11 15:54:52
Back to CruiseResearch ActivitiesStationsMapUnderway DataData graphs

EquipmentUnitsComments
TimeDGPSUTC
LatitudeDGPSDM.mWGS84
LongitudeDGPSDM.mWGS84
SpeedMeteo Stationm/sRelative wind speed
DirectionMeteo StationdegRelative wind direction
TemperatureMeteo Stationdeg CelciusAir temperature
PressureMeteo StationPaAtmospheric pressure
HumidityMeteo Station%Relative humidity
Missing or incorrect values are displayed as -999
Metereological data collected by the RV Zeeleeuw from 2004-03-11 07:14:48 to 2004-03-11 15:54:52
                                                                                    Next 1000 lines
Time Latitude Longitude Speed Direction Temperature Pressure Humidity
2004-03-11 07:14:54 51°13.593 2°56.108 3.7 331 1.4 102180 90
2004-03-11 07:15:00 51°13.592 2°56.108 3.6 327 1.4 102180 90
2004-03-11 07:15:02 51°13.592 2°56.108 3 350 1.4 102180 90
2004-03-11 07:15:09 51°13.592 2°56.108 3.3 353 1.4 102180 90
2004-03-11 07:15:14 51°13.592 2°56.108 3.4 340 1.4 102180 90
2004-03-11 07:15:18 51°13.592 2°56.108 3.6 341 1.3 102180 90
2004-03-11 07:15:25 51°13.592 2°56.108 3.9 336 1.3 102180 90
2004-03-11 07:15:30 51°13.592 2°56.108 3.7 338 1.3 102180 90
2004-03-11 07:15:34 51°13.592 2°56.109 3.8 338 1.3 102180 90
2004-03-11 07:15:38 51°13.592 2°56.109 4 334 1.3 102180 90
2004-03-11 07:15:44 51°13.592 2°56.109 3.6 333 1.3 102180 90
2004-03-11 07:15:49 51°13.592 2°56.109 3.6 337 1.3 102180 90
2004-03-11 07:15:53 51°13.592 2°56.109 3.7 338 1.3 102180 90
2004-03-11 07:16:00 51°13.592 2°56.109 3.6 346 1.3 102180 90
2004-03-11 07:16:04 51°13.592 2°56.109 2.8 331 1.3 102180 90
2004-03-11 07:16:09 51°13.592 2°56.109 4.1 343 1.3 102180 90
2004-03-11 07:16:14 51°13.592 2°56.109 4.2 349 1.3 102180 90
2004-03-11 07:16:18 51°13.592 2°56.109 4.8 348 1.3 102180 90
2004-03-11 07:16:24 51°13.592 2°56.109 4 350 1.3 102180 90
2004-03-11 07:16:30 51°13.592 2°56.109 3.8 344 1.3 102180 90
2004-03-11 07:16:34 51°13.592 2°56.109 3.4 339 1.3 102180 90
2004-03-11 07:16:40 51°13.592 2°56.109 3.2 341 1.3 102180 90
2004-03-11 07:16:44 51°13.592 2°56.109 2.8 358 1.3 102180 90
2004-03-11 07:16:49 51°13.592 2°56.109 2.8 340 1.3 102180 90
2004-03-11 07:16:54 51°13.592 2°56.109 2 42 1.3 102180 90
2004-03-11 07:16:58 51°13.592 2°56.109 2.4 10 1.3 102180 89
2004-03-11 07:17:04 51°13.592 2°56.109 1.2 17 1.3 102180 89
2004-03-11 07:17:09 51°13.592 2°56.109 1.8 345 1.3 102180 89
2004-03-11 07:17:14 51°13.592 2°56.109 1.6 343 1.3 102180 89
2004-03-11 07:17:20 51°13.592 2°56.109 2.3 343 1.3 102180 89
2004-03-11 07:17:24 51°13.592 2°56.109 2.5 345 1.3 102180 89
2004-03-11 07:17:30 51°13.592 2°56.109 4.1 335 1.3 102180 90
2004-03-11 07:17:34 51°13.591 2°56.109 4.2 341 1.3 102180 90
2004-03-11 07:17:39 51°13.591 2°56.109 4.5 352 1.3 102180 90
2004-03-11 07:17:44 51°13.591 2°56.109 3.2 355 1.3 102180 90
2004-03-11 07:17:50 51°13.591 2°56.109 3.4 3 1.3 102180 90
2004-03-11 07:17:54 51°13.591 2°56.108 2.4 358 1.3 102180 90
2004-03-11 07:18:00 51°13.591 2°56.106 1.9 11 1.3 102170 90
2004-03-11 07:18:04 51°13.592 2°56.104 1.6 25 1.3 102170 90
2004-03-11 07:18:10 51°13.593 2°56.099 2.8 333 1.3 102180 90
2004-03-11 07:18:14 51°13.594 2°56.096 2.9 338 1.3 102180 90
2004-03-11 07:18:20 51°13.596 2°56.09 2.3 337 1.2 102170 90
2004-03-11 07:18:25 51°13.598 2°56.084 2 338 1.2 102170 90
2004-03-11 07:18:30 51°13.601 2°56.078 1.7 334 1.3 102180 90
2004-03-11 07:18:35 51°13.603 2°56.071 1.3 344 1.3 102180 90
2004-03-11 07:18:40 51°13.606 2°56.064 1.7 333 1.3 102180 90
2004-03-11 07:18:45 51°13.609 2°56.055 1.5 327 1.3 102180 90
2004-03-11 07:18:50 51°13.611 2°56.047 1.2 321 1.3 102180 90
2004-03-11 07:18:55 51°13.614 2°56.038 0.7 317 1.3 102180 90
2004-03-11 07:19:00 51°13.617 2°56.029 0.7 294 1.3 102180 90
2004-03-11 07:19:05 51°13.621 2°56.019 0.7 257 1.3 102180 90
2004-03-11 07:19:10 51°13.624 2°56.009 0.9 254 1.3 102180 90
2004-03-11 07:19:15 51°13.627 2°55.999 1 298 1.3 102180 90
2004-03-11 07:19:20 51°13.631 2°55.989 1.7 307 1.2 102180 90
2004-03-11 07:19:25 51°13.634 2°55.979 2 316 1.2 102180 90
2004-03-11 07:19:30 51°13.637 2°55.969 1.5 312 1.2 102180 90
2004-03-11 07:19:36 51°13.641 2°55.956 1 321 1.2 102180 90
2004-03-11 07:19:40 51°13.643 2°55.948 1.5 335 1.3 102180 90
2004-03-11 07:19:45 51°13.646 2°55.937 2.2 322 1.3 102180 90
2004-03-11 07:19:50 51°13.649 2°55.926 1.2 335 1.2 102190 90
2004-03-11 07:19:55 51°13.652 2°55.914 0.9 335 1.2 102190 90
2004-03-11 07:20:00 51°13.654 2°55.902 0.8 331 1.2 102180 90
2004-03-11 07:20:05 51°13.656 2°55.89 0.8 309 1.2 102180 90
2004-03-11 07:20:10 51°13.658 2°55.878 0.9 29 1.2 102180 90
2004-03-11 07:20:16 51°13.661 2°55.863 1.1 20 1.2 102180 90
2004-03-11 07:20:20 51°13.662 2°55.853 1.4 62 1.2 102190 90
2004-03-11 07:20:25 51°13.663 2°55.841 1.7 62 1.2 102190 90
2004-03-11 07:20:30 51°13.664 2°55.829 1.1 66 1.2 102190 90
2004-03-11 07:20:35 51°13.665 2°55.816 1.5 67 1.2 102190 90
2004-03-11 07:20:40 51°13.666 2°55.805 1.7 67 1.2 102180 89
2004-03-11 07:20:45 51°13.666 2°55.794 2.3 54 1.2 102180 89
2004-03-11 07:20:50 51°13.667 2°55.786 2.7 51 1.2 102180 89
2004-03-11 07:20:55 51°13.667 2°55.779 2.6 55 1.2 102180 89
2004-03-11 07:21:00 51°13.667 2°55.774 2.9 54 1.2 102180 89
2004-03-11 07:21:04 51°13.667 2°55.772 3.3 53 1.2 102180 89
2004-03-11 07:21:08 51°13.667 2°55.77 3.6 60 1.2 102180 89
2004-03-11 07:21:14 51°13.667 2°55.769 3.9 47 1.2 102180 89
2004-03-11 07:21:18 51°13.668 2°55.769 3.4 48 1.2 102180 89
2004-03-11 07:21:25 51°13.671 2°55.771 4.1 47 1.2 102180 89
2004-03-11 07:21:30 51°13.674 2°55.772 4.3 63 1.2 102180 89
2004-03-11 07:21:34 51°13.676 2°55.773 5.4 68 1.2 102180 89
2004-03-11 07:21:40 51°13.68 2°55.775 3.6 74 1.2 102180 89
2004-03-11 07:21:44 51°13.682 2°55.776 3.8 69 1.2 102180 89
2004-03-11 07:21:50 51°13.686 2°55.776 3.5 102 1.2 102180 90
2004-03-11 07:21:54 51°13.689 2°55.776 3.4 93 1.2 102180 90
2004-03-11 07:22:00 51°13.695 2°55.774 3.6 88 1.2 102180 90
2004-03-11 07:22:04 51°13.699 2°55.772 3.4 91 1.2 102180 90
2004-03-11 07:22:09 51°13.704 2°55.768 3.8 114 1.2 102180 90
2004-03-11 07:22:14 51°13.709 2°55.762 2.6 123 1.2 102180 90
2004-03-11 07:22:18 51°13.712 2°55.758 2.4 115 1.2 102180 90
2004-03-11 07:22:24 51°13.718 2°55.751 2.2 105 1.2 102180 90
2004-03-11 07:22:30 51°13.724 2°55.744 1.9 124 1.2 102180 90
2004-03-11 07:22:34 51°13.728 2°55.739 2 118 1.2 102180 90
2004-03-11 07:22:38 51°13.732 2°55.734 1.5 120 1.2 102180 90
2004-03-11 07:22:44 51°13.738 2°55.726 2 136 1.2 102180 90
2004-03-11 07:22:48 51°13.743 2°55.721 2.3 135 1.2 102180 90
2004-03-11 07:22:54 51°13.75 2°55.713 1.7 143 1.2 102180 90
2004-03-11 07:23:00 51°13.758 2°55.704 1.4 110 1.3 102180 90
2004-03-11 07:23:04 51°13.764 2°55.698 2.1 58 1.3 102180 90
2004-03-11 07:23:09 51°13.772 2°55.69 1.9 69 1.2 102180 90
2004-03-11 07:23:14 51°13.78 2°55.682 2.1 43 1.2 102180 90
2004-03-11 07:23:18 51°13.786 2°55.676 2.3 39 1.3 102200 90
2004-03-11 07:23:24 51°13.797 2°55.666 2.6 51 1.3 102200 90
2004-03-11 07:23:29 51°13.806 2°55.658 2.5 26 1.2 102200 90
2004-03-11 07:23:34 51°13.816 2°55.65 1.9 50 1.2 102200 90
2004-03-11 07:23:40 51°13.827 2°55.64 1.9 42 1.2 102200 89
2004-03-11 07:23:44 51°13.835 2°55.633 1.6 59 1.2 102200 89
2004-03-11 07:23:49 51°13.844 2°55.624 2.4 25 1.3 102200 90
2004-03-11 07:23:54 51°13.855 2°55.616 2.9 28 1.3 102200 90
2004-03-11 07:24:00 51°13.867 2°55.606 2.5 48 1.3 102200 90
2004-03-11 07:24:05 51°13.878 2°55.597 3.5 33 1.3 102200 90
2004-03-11 07:24:09 51°13.887 2°55.591 4.1 38 1.3 102200 89
2004-03-11 07:24:15 51°13.9 2°55.581 3.9 30 1.3 102200 89
2004-03-11 07:24:26 51°13.924 2°55.563 3.9 61 1.3 102210 89
2004-03-11 07:24:30 51°13.933 2°55.557 3.4 69 1.2 102200 89
2004-03-11 07:24:34 51°13.942 2°55.551 3.3 69 1.2 102200 89
2004-03-11 07:24:40 51°13.956 2°55.541 3 70 1.2 102200 89
2004-03-11 07:24:45 51°13.967 2°55.533 3 62 1.2 102200 89
2004-03-11 07:24:50 51°13.979 2°55.526 3.4 51 1.3 102200 89
2004-03-11 07:24:56 51°13.992 2°55.516 3.8 46 1.3 102200 89
2004-03-11 07:25:00 51°14.001 2°55.509 3.2 44 1.2 102200 89
2004-03-11 07:25:06 51°14.015 2°55.5 3.3 51 1.2 102200 89
2004-03-11 07:25:10 51°14.024 2°55.493 3.5 61 1.2 102200 89
2004-03-11 07:25:14 51°14.033 2°55.487 3.3 64 1.2 102200 89
2004-03-11 07:25:20 51°14.047 2°55.477 3.2 60 1.3 102200 89
2004-03-11 07:25:26 51°14.061 2°55.467 2.5 60 1.3 102200 89
2004-03-11 07:25:30 51°14.07 2°55.461 3 59 1.3 102200 89
2004-03-11 07:25:36 51°14.084 2°55.45 3.7 39 1.3 102200 89
2004-03-11 07:25:41 51°14.095 2°55.442 3.4 50 1.3 102200 89
2004-03-11 07:25:46 51°14.107 2°55.433 3.4 37 1.3 102200 89
2004-03-11 07:25:50 51°14.117 2°55.426 3.7 46 1.3 102200 89
2004-03-11 07:25:56 51°14.131 2°55.416 3.3 36 1.3 102200 89
2004-03-11 07:26:00 51°14.141 2°55.408 3.3 44 1.3 102200 89
2004-03-11 07:26:06 51°14.155 2°55.396 3.9 56 1.3 102200 89
2004-03-11 07:26:10 51°14.164 2°55.388 3.3 54 1.3 102200 89
2004-03-11 07:26:16 51°14.178 2°55.374 3 74 1.3 102200 89
2004-03-11 07:26:21 51°14.19 2°55.362 2.9 66 1.2 102190 89
2004-03-11 07:26:26 51°14.202 2°55.349 2.9 44 1.2 102190 89
2004-03-11 07:26:31 51°14.213 2°55.336 3.4 56 1.3 102200 89
2004-03-11 07:26:36 51°14.224 2°55.321 3.2 65 1.3 102200 89
2004-03-11 07:26:41 51°14.235 2°55.306 2.8 43 1.3 102190 89
2004-03-11 07:26:46 51°14.246 2°55.291 3.1 31 1.3 102190 89
2004-03-11 07:26:51 51°14.256 2°55.275 2.8 32 1.2 102200 89
2004-03-11 07:26:56 51°14.267 2°55.258 3.7 27 1.2 102200 89
2004-03-11 07:27:01 51°14.277 2°55.24 3.9 27 1.2 102200 89
2004-03-11 07:27:06 51°14.288 2°55.221 4.1 30 1.2 102200 89
2004-03-11 07:27:10 51°14.296 2°55.205 3.7 39 1.2 102200 89
2004-03-11 07:27:16 51°14.309 2°55.181 3.6 26 1.2 102200 89
2004-03-11 07:27:21 51°14.319 2°55.161 4.3 23 1.2 102190 89
2004-03-11 07:27:26 51°14.329 2°55.14 4 23 1.2 102190 89
2004-03-11 07:27:30 51°14.338 2°55.124 4.8 34 1.2 102180 89
2004-03-11 07:27:36 51°14.351 2°55.099 3.6 31 1.2 102180 89
2004-03-11 07:27:41 51°14.362 2°55.079 3.7 24 1.2 102190 89
2004-03-11 07:27:46 51°14.373 2°55.059 4.7 24 1.2 102190 89
2004-03-11 07:27:50 51°14.382 2°55.042 3.4 28 1.2 102190 89
2004-03-11 07:27:56 51°14.395 2°55.016 4.7 24 1.2 102190 89
2004-03-11 07:28:00 51°14.402 2°54.999 3.9 43 1.2 102190 89
2004-03-11 07:28:06 51°14.413 2°54.974 2.5 35 1.2 102190 89
2004-03-11 07:28:10 51°14.419 2°54.957 2.5 30 1.2 102190 89
2004-03-11 07:28:16 51°14.428 2°54.931 2.6 31 1.2 102190 89
2004-03-11 07:28:20 51°14.434 2°54.914 2.5 29 1.2 102200 89
2004-03-11 07:28:26 51°14.441 2°54.888 2 37 1.2 102200 89
2004-03-11 07:28:30 51°14.446 2°54.871 2.1 22 1.2 102200 89
2004-03-11 07:28:36 51°14.453 2°54.847 2.2 34 1.2 102200 89
2004-03-11 07:28:41 51°14.459 2°54.827 1.7 51 1.2 102190 89
2004-03-11 07:28:46 51°14.465 2°54.807 2.4 43 1.2 102190 89
2004-03-11 07:28:50 51°14.47 2°54.792 2.1 42 1.2 102210 89
2004-03-11 07:28:56 51°14.478 2°54.769 1.7 62 1.2 102210 89
2004-03-11 07:29:00 51°14.483 2°54.754 1.9 71 1.2 102210 89
2004-03-11 07:29:06 51°14.49 2°54.732 2 76 1.2 102210 89
2004-03-11 07:29:10 51°14.495 2°54.718 1.8 92 1.2 102210 89
2004-03-11 07:29:16 51°14.503 2°54.697 1.9 89 1.2 102210 89
2004-03-11 07:29:20 51°14.508 2°54.683 2.1 93 1.3 102200 90
2004-03-11 07:29:26 51°14.516 2°54.661 2.2 83 1.3 102200 90
2004-03-11 07:29:30 51°14.521 2°54.646 2.1 72 1.3 102200 90
2004-03-11 07:29:36 51°14.53 2°54.623 2 70 1.3 102200 90
2004-03-11 07:29:40 51°14.537 2°54.607 2.1 70 1.3 102200 90
2004-03-11 07:29:46 51°14.546 2°54.583 1.9 67 1.3 102200 90
2004-03-11 07:29:50 51°14.553 2°54.566 2.2 65 1.3 102190 89
2004-03-11 07:29:55 51°14.562 2°54.545 2 77 1.3 102190 89
2004-03-11 07:30:00 51°14.57 2°54.523 2 70 1.3 102190 90
2004-03-11 07:30:06 51°14.581 2°54.496 2.5 60 1.3 102190 90
2004-03-11 07:30:10 51°14.588 2°54.478 2.5 53 1.3 102190 90
2004-03-11 07:30:16 51°14.598 2°54.45 3 49 1.3 102190 90
2004-03-11 07:30:20 51°14.606 2°54.431 2.8 48 1.3 102190 90
2004-03-11 07:30:26 51°14.616 2°54.402 3.2 52 1.3 102190 90
2004-03-11 07:30:30 51°14.624 2°54.383 2.8 47 1.3 102190 90
2004-03-11 07:30:36 51°14.636 2°54.353 3.2 48 1.3 102190 90
2004-03-11 07:30:40 51°14.643 2°54.332 3.5 33 1.3 102190 90
2004-03-11 07:30:45 51°14.652 2°54.306 2.4 41 1.3 102190 90
2004-03-11 07:30:50 51°14.662 2°54.279 2.8 41 1.3 102190 90
2004-03-11 07:30:56 51°14.673 2°54.248 2.9 32 1.3 102190 90
2004-03-11 07:31:01 51°14.683 2°54.221 2.6 29 1.3 102190 89
2004-03-11 07:31:05 51°14.691 2°54.2 2.7 34 1.3 102190 89
2004-03-11 07:31:10 51°14.7 2°54.174 3 32 1.3 102190 89
2004-03-11 07:31:16 51°14.713 2°54.142 3.4 20 1.3 102190 89
2004-03-11 07:31:20 51°14.721 2°54.121 3.1 31 1.2 102130 89
2004-03-11 07:31:25 51°14.731 2°54.095 3.5 31 1.2 102130 89
2004-03-11 07:31:30 51°14.741 2°54.068 3.7 36 1.2 102130 89
2004-03-11 07:31:36 51°14.754 2°54.036 3.5 29 1.2 102130 89
2004-03-11 07:31:40 51°14.762 2°54.015 3.5 30 1.2 102130 89
2004-03-11 07:31:44 51°14.769 2°53.993 3.3 29 1.2 102130 89
2004-03-11 07:31:50 51°14.781 2°53.961 3.5 37 1.2 102150 89
2004-03-11 07:31:54 51°14.789 2°53.939 3 44 1.2 102150 89
2004-03-11 07:32:00 51°14.8 2°53.906 3.1 50 1.3 102140 90
2004-03-11 07:32:06 51°14.811 2°53.874 3.2 42 1.3 102140 90
2004-03-11 07:32:10 51°14.819 2°53.851 3.7 37 1.3 102150 90
2004-03-11 07:32:14 51°14.826 2°53.829 2.9 36 1.3 102150 90
2004-03-11 07:32:20 51°14.838 2°53.796 2.9 40 1.2 102140 90
2004-03-11 07:32:25 51°14.848 2°53.769 3.4 35 1.2 102140 90
2004-03-11 07:32:30 51°14.857 2°53.742 3.4 45 1.2 102140 89
2004-03-11 07:32:36 51°14.869 2°53.71 2.9 47 1.2 102140 89
2004-03-11 07:32:40 51°14.878 2°53.688 3.2 36 1.2 102140 89
2004-03-11 07:32:45 51°14.888 2°53.661 3.2 34 1.2 102140 89
2004-03-11 07:32:50 51°14.897 2°53.634 3.4 39 1.2 102140 89
2004-03-11 07:32:54 51°14.905 2°53.612 2.5 41 1.2 102140 89
2004-03-11 07:33:00 51°14.917 2°53.579 2.5 45 1.2 102130 89
2004-03-11 07:33:06 51°14.928 2°53.547 2.6 37 1.2 102130 89
2004-03-11 07:33:10 51°14.936 2°53.524 2.6 34 1.2 102130 89
2004-03-11 07:33:16 51°14.947 2°53.491 2.4 32 1.2 102130 89
2004-03-11 07:33:20 51°14.955 2°53.469 2.4 33 1.2 102140 89
2004-03-11 07:33:26 51°14.967 2°53.436 2.9 32 1.2 102140 89
2004-03-11 07:33:30 51°14.975 2°53.414 3.1 28 1.2 102140 89
2004-03-11 07:33:36 51°14.987 2°53.382 2.8 32 1.2 102140 89
2004-03-11 07:33:41 51°14.997 2°53.354 2.8 34 1.2 102140 89
2004-03-11 07:33:46 51°15.007 2°53.327 2.4 32 1.2 102140 89
2004-03-11 07:33:50 51°15.015 2°53.304 2.4 31 1.2 102190 89
2004-03-11 07:33:56 51°15.027 2°53.271 2.8 30 1.2 102190 89
2004-03-11 07:34:00 51°15.034 2°53.249 2.8 26 1.2 102180 89
2004-03-11 07:34:06 51°15.045 2°53.215 2.4 29 1.2 102180 89
2004-03-11 07:34:10 51°15.052 2°53.192 2.3 29 1.2 102180 89
2004-03-11 07:34:14 51°15.059 2°53.169 2.1 24 1.2 102180 89
2004-03-11 07:34:21 51°15.072 2°53.129 1.8 27 1.2 102180 89
2004-03-11 07:34:26 51°15.081 2°53.101 1.7 25 1.2 102180 89
2004-03-11 07:34:30 51°15.088 2°53.078 1.7 27 1.2 102180 89
2004-03-11 07:34:36 51°15.099 2°53.044 1.7 24 1.2 102180 89
2004-03-11 07:34:40 51°15.106 2°53.021 1.5 25 1.2 102190 89
2004-03-11 07:34:45 51°15.114 2°52.993 2.3 24 1.2 102190 89
2004-03-11 07:34:50 51°15.123 2°52.964 2.2 25 1.2 102180 89
2004-03-11 07:34:56 51°15.133 2°52.929 1.5 21 1.2 102180 89
2004-03-11 07:35:01 51°15.141 2°52.899 1.6 2 1.2 102140 89
2004-03-11 07:35:05 51°15.147 2°52.875 2.3 354 1.2 102140 89
2004-03-11 07:35:10 51°15.154 2°52.845 3.3 349 1.2 102140 89
2004-03-11 07:35:16 51°15.163 2°52.809 2.5 360 1.2 102140 89
2004-03-11 07:35:20 51°15.17 2°52.785 2.6 7 1.2 102180 89
2004-03-11 07:35:26 51°15.179 2°52.75 2.4 351 1.2 102180 89
2004-03-11 07:35:30 51°15.186 2°52.726 2.4 347 1.2 102180 89
2004-03-11 07:35:36 51°15.197 2°52.691 1.8 353 1.2 102180 89
2004-03-11 07:35:41 51°15.206 2°52.662 2.7 355 1.2 102180 89
2004-03-11 07:35:46 51°15.215 2°52.633 2.4 358 1.2 102180 89
2004-03-11 07:35:50 51°15.222 2°52.61 2.6 359 1.2 102180 89
2004-03-11 07:35:56 51°15.233 2°52.575 2.6 350 1.2 102180 89
2004-03-11 07:36:00 51°15.24 2°52.552 2.3 354 1.2 102190 89
2004-03-11 07:36:06 51°15.25 2°52.517 2.8 357 1.2 102190 89
2004-03-11 07:36:10 51°15.258 2°52.493 2.7 356 1.2 102180 89
2004-03-11 07:36:16 51°15.268 2°52.458 2.5 352 1.2 102180 89
2004-03-11 07:36:20 51°15.275 2°52.434 2.4 354 1.2 102180 89
2004-03-11 07:36:26 51°15.285 2°52.399 1.9 357 1.2 102180 89
2004-03-11 07:36:30 51°15.292 2°52.376 2.3 351 1.2 102190 89
2004-03-11 07:36:35 51°15.301 2°52.347 2.2 357 1.2 102190 89
2004-03-11 07:36:40 51°15.309 2°52.317 2.5 355 1.2 102180 89
2004-03-11 07:36:46 51°15.318 2°52.281 2.5 356 1.2 102180 89
2004-03-11 07:36:50 51°15.324 2°52.257 2.5 346 1.2 102180 89
2004-03-11 07:36:54 51°15.33 2°52.233 2.9 351 1.2 102180 89
2004-03-11 07:37:00 51°15.338 2°52.197 2.6 342 1.2 102180 89
2004-03-11 07:37:06 51°15.347 2°52.16 2.5 340 1.2 102180 89
2004-03-11 07:37:10 51°15.352 2°52.135 2.3 343 1.2 102180 89
2004-03-11 07:37:16 51°15.36 2°52.099 2.1 348 1.2 102180 89
2004-03-11 07:37:20 51°15.366 2°52.074 2.4 349 1.2 102180 89
2004-03-11 07:37:25 51°15.372 2°52.044 2.2 351 1.2 102180 89
2004-03-11 07:37:30 51°15.379 2°52.013 2.4 340 1.2 102180 89
2004-03-11 07:37:36 51°15.385 2°51.975 2.3 343 1.2 102180 89
2004-03-11 07:37:40 51°15.389 2°51.95 2.2 336 1.2 102180 89
2004-03-11 07:37:46 51°15.394 2°51.911 3.4 345 1.2 102180 89
2004-03-11 07:37:50 51°15.398 2°51.886 3.1 333 1.2 102180 89
2004-03-11 07:37:56 51°15.402 2°51.847 3.3 334 1.2 102180 89
2004-03-11 07:38:00 51°15.404 2°51.821 3.6 331 1.2 102180 89
2004-03-11 07:38:06 51°15.407 2°51.782 3.5 336 1.2 102180 89
2004-03-11 07:38:10 51°15.409 2°51.756 4 326 1.2 102180 89
2004-03-11 07:38:16 51°15.412 2°51.717 3.6 319 1.2 102180 89
2004-03-11 07:38:20 51°15.412 2°51.691 3.4 322 1.2 102180 89
2004-03-11 07:38:26 51°15.413 2°51.652 3.5 321 1.2 102180 89
2004-03-11 07:38:30 51°15.412 2°51.626 3.8 329 1.3 102180 89
2004-03-11 07:38:34 51°15.412 2°51.6 3.5 328 1.3 102180 89
2004-03-11 07:38:40 51°15.411 2°51.561 3.8 332 1.3 102180 89
2004-03-11 07:38:46 51°15.41 2°51.521 3.7 331 1.3 102180 89
2004-03-11 07:38:50 51°15.408 2°51.495 4.8 329 1.2 102180 89
2004-03-11 07:38:56 51°15.407 2°51.456 5.4 318 1.2 102180 89
2004-03-11 07:39:00 51°15.406 2°51.43 5.1 315 1.3 102170 89
2004-03-11 07:39:05 51°15.405 2°51.397 5.6 319 1.3 102170 89
2004-03-11 07:39:10 51°15.403 2°51.365 4.8 324 1.3 102180 89
2004-03-11 07:39:16 51°15.401 2°51.325 4.4 316 1.3 102180 89
2004-03-11 07:39:20 51°15.4 2°51.299 4.1 318 1.3 102180 89
2004-03-11 07:39:26 51°15.398 2°51.26 3.8 42 1.3 102180 89
2004-03-11 07:39:30 51°15.398 2°51.234 3.8 228 1.3 102170 89
2004-03-11 07:39:36 51°15.396 2°51.194 3.8 320 1.3 102170 89
2004-03-11 07:39:40 51°15.395 2°51.168 4.4 321 1.3 102180 89
2004-03-11 07:39:45 51°15.393 2°51.135 4.9 328 1.3 102180 89
2004-03-11 07:39:49 51°15.391 2°51.109 4.8 330 1.3 102170 89
2004-03-11 07:39:56 51°15.386 2°51.064 4.9 334 1.3 102170 89
2004-03-11 07:40:00 51°15.384 2°51.038 5.2 323 1.3 102170 89
2004-03-11 07:40:06 51°15.379 2°50.999 4.9 326 1.3 102170 89
2004-03-11 07:40:10 51°15.377 2°50.973 5.1 320 1.3 102180 89
2004-03-11 07:40:16 51°15.372 2°50.935 4.8 328 1.3 102180 89
2004-03-11 07:40:20 51°15.369 2°50.909 4.7 327 1.3 102170 89
2004-03-11 07:40:25 51°15.365 2°50.877 4.5 330 1.3 102170 89
2004-03-11 07:40:30 51°15.361 2°50.844 4.2 325 1.3 102180 89
2004-03-11 07:40:36 51°15.357 2°50.805 4 326 1.3 102180 89
2004-03-11 07:40:40 51°15.354 2°50.779 4.7 320 1.3 102170 89
2004-03-11 07:40:46 51°15.349 2°50.74 4.1 318 1.3 102170 89
2004-03-11 07:40:50 51°15.346 2°50.715 4.8 320 1.3 102180 89
2004-03-11 07:40:54 51°15.343 2°50.689 4.8 327 1.3 102180 89
2004-03-11 07:41:00 51°15.339 2°50.65 5.7 329 1.3 102170 89
2004-03-11 07:41:06 51°15.335 2°50.611 5.7 328 1.3 102170 89
2004-03-11 07:41:10 51°15.332 2°50.585 5.9 329 1.3 102180 89
2004-03-11 07:41:16 51°15.327 2°50.547 6.1 327 1.3 102180 89
2004-03-11 07:41:20 51°15.323 2°50.521 6.2 323 1.3 102170 89
2004-03-11 07:41:26 51°15.318 2°50.483 6.2 324 1.3 102170 89
2004-03-11 07:41:30 51°15.314 2°50.458 6.1 324 1.3 102170 89
2004-03-11 07:41:36 51°15.308 2°50.42 5.3 320 1.3 102170 89
2004-03-11 07:41:40 51°15.304 2°50.394 5.2 325 1.3 102170 89
2004-03-11 07:41:45 51°15.3 2°50.363 4.7 325 1.3 102170 89
2004-03-11 07:41:51 51°15.295 2°50.324 5.6 328 1.3 102170 89
2004-03-11 07:41:56 51°15.292 2°50.292 5.9 316 1.3 102170 89
2004-03-11 07:42:01 51°15.287 2°50.26 3.3 316 1.3 102170 89
2004-03-11 07:42:06 51°15.283 2°50.228 5.7 327 1.3 102170 89
2004-03-11 07:42:10 51°15.28 2°50.202 5.8 320 1.3 102170 89
2004-03-11 07:42:16 51°15.276 2°50.163 6.4 43 1.3 102170 89
2004-03-11 07:42:20 51°15.272 2°50.138 6.2 323 1.3 102170 89
2004-03-11 07:42:26 51°15.268 2°50.099 5.8 320 1.3 102170 89
2004-03-11 07:42:30 51°15.266 2°50.073 6.1 317 1.4 102170 89
2004-03-11 07:42:36 51°15.261 2°50.034 5 324 1.4 102170 89
2004-03-11 07:42:40 51°15.258 2°50.008 5.5 321 1.4 102170 89
2004-03-11 07:42:45 51°15.255 2°49.976 6.2 325 1.4 102170 89
2004-03-11 07:42:50 51°15.252 2°49.944 6.1 326 1.4 102160 89
2004-03-11 07:42:56 51°15.247 2°49.905 6.1 331 1.4 102160 89
2004-03-11 07:43:01 51°15.244 2°49.872 6.6 326 1.4 102170 89
2004-03-11 07:43:06 51°15.24 2°49.84 6.6 323 1.4 102170 89
2004-03-11 07:43:10 51°15.237 2°49.814 6.8 322 1.3 102170 89
2004-03-11 07:43:16 51°15.233 2°49.775 5.9 319 1.3 102170 89
2004-03-11 07:43:20 51°15.23 2°49.749 5.9 317 1.4 102170 89
2004-03-11 07:43:25 51°15.226 2°49.717 5.8 327 1.4 102170 89
2004-03-11 07:43:30 51°15.223 2°49.685 5.9 336 1.4 102170 89
2004-03-11 07:43:36 51°15.219 2°49.646 6.1 328 1.4 102170 89
2004-03-11 07:43:40 51°15.216 2°49.62 6.1 334 1.4 102130 89
2004-03-11 07:43:46 51°15.212 2°49.581 6.5 327 1.4 102130 89
2004-03-11 07:43:50 51°15.209 2°49.555 6.9 321 1.4 102120 89
2004-03-11 07:43:56 51°15.204 2°49.517 6 322 1.4 102120 89
2004-03-11 07:44:00 51°15.202 2°49.491 7 317 1.4 102130 89
2004-03-11 07:44:06 51°15.197 2°49.452 5.8 316 1.4 102130 89
2004-03-11 07:44:10 51°15.195 2°49.426 6.1 317 1.4 102130 89
2004-03-11 07:44:16 51°15.19 2°49.388 7.1 323 1.4 102130 89
2004-03-11 07:44:20 51°15.187 2°49.362 7.5 325 1.4 102120 89
2004-03-11 07:44:25 51°15.183 2°49.33 7.2 323 1.4 102120 89
2004-03-11 07:44:30 51°15.18 2°49.298 7 321 1.4 102120 89
2004-03-11 07:44:36 51°15.175 2°49.259 6.7 321 1.4 102120 89
2004-03-11 07:44:40 51°15.172 2°49.233 7.8 319 1.4 102130 89
2004-03-11 07:44:46 51°15.169 2°49.194 6.4 41 1.4 102130 89
2004-03-11 07:44:50 51°15.165 2°49.169 6.5 318 1.4 102130 89
2004-03-11 07:44:56 51°15.161 2°49.13 6.2 317 1.4 102130 89
2004-03-11 07:45:00 51°15.158 2°49.104 5.8 320 1.4 102120 89
2004-03-11 07:45:06 51°15.154 2°49.066 5.8 321 1.4 102120 89
2004-03-11 07:45:10 51°15.151 2°49.041 6 325 1.4 102130 89
2004-03-11 07:45:16 51°15.147 2°49.002 7.3 228 1.4 102130 89
2004-03-11 07:45:20 51°15.143 2°48.976 5.6 323 1.4 102130 89
2004-03-11 07:45:26 51°15.139 2°48.937 5.7 317 1.4 102130 89
2004-03-11 07:45:30 51°15.136 2°48.912 6.6 333 1.4 102120 89
2004-03-11 07:45:36 51°15.132 2°48.873 6.7 315 1.4 102120 89
2004-03-11 07:45:40 51°15.129 2°48.848 6.2 317 1.4 102130 89
2004-03-11 07:45:46 51°15.124 2°48.809 6.4 327 1.4 102130 89
2004-03-11 07:45:50 51°15.122 2°48.783 6.8 321 1.4 102120 89
2004-03-11 07:45:56 51°15.117 2°48.744 6.8 324 1.4 102120 89
2004-03-11 07:46:00 51°15.114 2°48.719 6.4 327 1.4 102130 89
2004-03-11 07:46:05 51°15.111 2°48.686 6 327 1.4 102130 89
2004-03-11 07:46:10 51°15.108 2°48.654 5.4 322 1.4 102130 89
2004-03-11 07:46:15 51°15.105 2°48.621 6.9 322 1.4 102130 89
2004-03-11 07:46:20 51°15.101 2°48.589 6.7 320 1.4 102130 89
2004-03-11 07:46:26 51°15.097 2°48.55 6.9 323 1.4 102130 89
2004-03-11 07:46:30 51°15.094 2°48.525 7.3 43 1.4 102130 89
2004-03-11 07:46:36 51°15.09 2°48.486 6.6 319 1.4 102130 89
2004-03-11 07:46:40 51°15.087 2°48.46 6.2 318 1.4 102130 89
2004-03-11 07:46:46 51°15.083 2°48.421 5.1 323 1.4 102130 89
2004-03-11 07:46:50 51°15.08 2°48.395 6.3 320 1.4 102130 89
2004-03-11 07:46:56 51°15.076 2°48.356 5.9 317 1.4 102130 89
2004-03-11 07:47:00 51°15.073 2°48.33 5.7 319 1.4 102180 89
2004-03-11 07:47:05 51°15.07 2°48.297 6.6 320 1.4 102180 89
2004-03-11 07:47:10 51°15.066 2°48.264 6.8 320 1.4 102120 89
2004-03-11 07:47:16 51°15.063 2°48.225 6.3 321 1.4 102120 89
2004-03-11 07:47:20 51°15.06 2°48.199 6.3 314 1.4 102130 89
2004-03-11 07:47:26 51°15.056 2°48.16 5.7 320 1.4 102130 89
2004-03-11 07:47:30 51°15.054 2°48.134 5.9 316 1.4 102160 89
2004-03-11 07:47:36 51°15.049 2°48.095 5.7 318 1.4 102160 89
2004-03-11 07:47:40 51°15.047 2°48.069 6.1 320 1.4 102130 89
2004-03-11 07:47:46 51°15.042 2°48.03 6.6 317 1.4 102130 89
2004-03-11 07:47:50 51°15.039 2°48.004 6.3 318 1.4 102130 89
2004-03-11 07:47:56 51°15.035 2°47.966 7.7 310 1.4 102130 89
2004-03-11 07:48:01 51°15.031 2°47.933 6.9 43 1.4 102120 89
2004-03-11 07:48:05 51°15.029 2°47.907 7.2 313 1.4 102120 89
2004-03-11 07:48:08 51°15.026 2°47.888 6.5 227 1.4 102130 89
2004-03-11 07:48:16 51°15.021 2°47.836 6.6 40 1.4 102130 89
2004-03-11 07:48:20 51°15.018 2°47.81 7.5 313 1.4 102120 89
2004-03-11 07:48:25 51°15.014 2°47.778 7.4 313 1.4 102120 89
2004-03-11 07:48:30 51°15.011 2°47.746 6.6 227 1.4 102130 89
2004-03-11 07:48:36 51°15.006 2°47.708 6 316 1.4 102130 89
2004-03-11 07:48:40 51°15.004 2°47.681 7 318 1.4 102120 89
2004-03-11 07:48:46 51°14.999 2°47.643 6.8 315 1.4 102120 89
2004-03-11 07:48:50 51°14.996 2°47.617 6.2 311 1.4 102120 89
2004-03-11 07:48:56 51°14.991 2°47.578 6.6 318 1.4 102120 89
2004-03-11 07:49:00 51°14.989 2°47.552 7.3 229 1.4 102120 89
2004-03-11 07:49:06 51°14.985 2°47.514 6.2 315 1.4 102120 89
2004-03-11 07:49:10 51°14.982 2°47.488 7 309 1.4 102120 89
2004-03-11 07:49:16 51°14.978 2°47.449 5.5 310 1.4 102120 89
2004-03-11 07:49:20 51°14.975 2°47.424 5.1 311 1.4 102120 89
2004-03-11 07:49:25 51°14.971 2°47.391 6.1 321 1.4 102120 89
2004-03-11 07:49:30 51°14.968 2°47.359 6.5 310 1.4 102120 89
2004-03-11 07:49:36 51°14.963 2°47.321 6 226 1.4 102120 89
2004-03-11 07:49:40 51°14.961 2°47.295 6.2 229 1.4 102130 89
2004-03-11 07:49:45 51°14.958 2°47.263 6.5 226 1.4 102130 89
2004-03-11 07:49:50 51°14.954 2°47.231 6.2 41 1.4 102120 89
2004-03-11 07:49:56 51°14.95 2°47.193 6.6 311 1.4 102120 89
2004-03-11 07:50:00 51°14.947 2°47.167 6.2 308 1.4 102130 89
2004-03-11 07:50:06 51°14.943 2°47.129 5.3 305 1.4 102130 89
2004-03-11 07:50:10 51°14.941 2°47.103 6.1 300 1.4 102120 89
2004-03-11 07:50:14 51°14.938 2°47.078 4.8 316 1.4 102120 89
2004-03-11 07:50:20 51°14.934 2°47.04 5.7 313 1.4 102120 89
2004-03-11 07:50:26 51°14.93 2°47.002 5.7 305 1.4 102120 89
2004-03-11 07:50:30 51°14.927 2°46.977 6.2 315 1.4 102120 88
2004-03-11 07:50:36 51°14.923 2°46.939 5 310 1.4 102120 88
2004-03-11 07:50:41 51°14.919 2°46.908 4.9 313 1.4 102120 88
2004-03-11 07:50:46 51°14.916 2°46.876 6.3 311 1.4 102120 88
2004-03-11 07:50:50 51°14.912 2°46.851 5.9 39 1.4 102130 88
2004-03-11 07:50:56 51°14.907 2°46.814 6.7 310 1.4 102130 88
2004-03-11 07:51:00 51°14.905 2°46.788 6.2 311 1.4 102120 88
2004-03-11 07:51:05 51°14.9 2°46.758 5.8 315 1.4 102120 88
2004-03-11 07:51:10 51°14.898 2°46.726 6.5 306 1.4 102130 88
2004-03-11 07:51:16 51°14.893 2°46.688 5.2 314 1.4 102130 88
2004-03-11 07:51:20 51°14.89 2°46.663 5.8 311 1.4 102120 88
2004-03-11 07:51:26 51°14.886 2°46.626 5.5 229 1.4 102120 88
2004-03-11 07:51:30 51°14.883 2°46.601 5.7 229 1.4 102120 88
2004-03-11 07:51:36 51°14.879 2°46.563 6.1 312 1.4 102120 88
2004-03-11 07:51:40 51°14.877 2°46.538 5.5 310 1.4 102120 88
2004-03-11 07:51:45 51°14.874 2°46.506 5.9 328 1.4 102120 88
2004-03-11 07:51:50 51°14.871 2°46.475 6.6 43 1.4 102120 88
2004-03-11 07:51:56 51°14.868 2°46.437 6.1 312 1.4 102120 88
2004-03-11 07:52:00 51°14.866 2°46.411 6.1 307 1.5 102120 88
2004-03-11 07:52:05 51°14.863 2°46.38 5.5 43 1.5 102120 88
2004-03-11 07:52:10 51°14.861 2°46.348 6.6 314 1.4 102120 88
2004-03-11 07:52:16 51°14.858 2°46.31 6.5 322 1.4 102120 88
2004-03-11 07:52:21 51°14.854 2°46.279 6.2 228 1.5 102120 88
2004-03-11 07:52:26 51°14.851 2°46.247 7.3 310 1.5 102120 88
2004-03-11 07:52:30 51°14.847 2°46.222 7.4 310 1.5 102120 88
2004-03-11 07:52:36 51°14.842 2°46.184 7.3 309 1.5 102120 88
2004-03-11 07:52:40 51°14.839 2°46.159 6.7 41 1.5 102130 89
2004-03-11 07:52:45 51°14.834 2°46.128 6.5 309 1.5 102130 89
2004-03-11 07:52:50 51°14.83 2°46.096 7.1 228 1.5 102120 89
2004-03-11 07:52:56 51°14.825 2°46.058 6 313 1.5 102120 89
2004-03-11 07:53:00 51°14.822 2°46.033 5.9 43 1.5 102110 88
2004-03-11 07:53:06 51°14.818 2°45.994 5.4 314 1.5 102110 88
2004-03-11 07:53:10 51°14.816 2°45.968 4.8 226 1.5 102120 88
2004-03-11 07:53:14 51°14.814 2°45.942 5.5 41 1.5 102120 88
2004-03-11 07:53:20 51°14.813 2°45.903 5.1 318 1.5 102120 88
2004-03-11 07:53:26 51°14.812 2°45.863 5.7 227 1.5 102120 88
2004-03-11 07:53:30 51°14.812 2°45.837 5.5 320 1.5 102120 88
2004-03-11 07:53:34 51°14.812 2°45.81 5.3 314 1.5 102120 88
2004-03-11 07:53:40 51°14.812 2°45.77 4.6 320 1.5 102130 88
2004-03-11 07:53:45 51°14.811 2°45.737 4.5 327 1.5 102130 88
2004-03-11 07:53:50 51°14.81 2°45.703 5.6 319 1.5 102130 88
2004-03-11 07:53:56 51°14.807 2°45.663 5.8 323 1.5 102130 88
2004-03-11 07:54:01 51°14.805 2°45.63 6.6 317 1.5 102160 88
2004-03-11 07:54:06 51°14.801 2°45.596 6.5 330 1.5 102160 88
2004-03-11 07:54:10 51°14.798 2°45.57 6.7 317 1.5 102120 88
2004-03-11 07:54:16 51°14.793 2°45.53 6.3 315 1.5 102120 88
2004-03-11 07:54:20 51°14.791 2°45.504 6.6 321 1.5 102130 88
2004-03-11 07:54:26 51°14.786 2°45.464 6.9 227 1.5 102130 88
2004-03-11 07:54:30 51°14.784 2°45.438 6.5 310 1.5 102120 88
2004-03-11 07:54:36 51°14.779 2°45.398 6 312 1.5 102120 88
2004-03-11 07:54:41 51°14.776 2°45.365 6.2 313 1.4 102120 88
2004-03-11 07:54:45 51°14.773 2°45.339 6.3 315 1.4 102120 88
2004-03-11 07:54:50 51°14.769 2°45.306 5.6 310 1.5 102120 88
2004-03-11 07:54:56 51°14.766 2°45.266 5.8 311 1.5 102120 88
2004-03-11 07:55:01 51°14.762 2°45.233 6 43 1.4 102120 88
2004-03-11 07:55:06 51°14.759 2°45.2 5.8 42 1.4 102120 88
2004-03-11 07:55:08 51°14.757 2°45.187 5.6 310 1.4 102130 88
2004-03-11 07:55:16 51°14.752 2°45.134 5.8 43 1.4 102130 88
2004-03-11 07:55:20 51°14.75 2°45.107 6.1 303 1.4 102130 88
2004-03-11 07:55:26 51°14.746 2°45.068 5.3 308 1.4 102130 88
2004-03-11 07:55:30 51°14.743 2°45.042 5.5 308 1.4 102130 88
2004-03-11 07:55:36 51°14.738 2°45.002 5.4 303 1.4 102130 88
2004-03-11 07:55:40 51°14.736 2°44.976 4.9 312 1.4 102130 88
2004-03-11 07:55:46 51°14.731 2°44.937 5.8 322 1.4 102130 88
2004-03-11 07:55:50 51°14.728 2°44.91 5.9 318 1.4 102130 88
2004-03-11 07:55:56 51°14.724 2°44.871 5.2 303 1.4 102130 88
2004-03-11 07:56:00 51°14.721 2°44.845 5.7 228 1.4 102130 88
2004-03-11 07:56:05 51°14.717 2°44.812 5.2 230 1.4 102130 88
2004-03-11 07:56:10 51°14.714 2°44.778 5.9 312 1.4 102130 88
2004-03-11 07:56:16 51°14.709 2°44.739 5.3 315 1.4 102130 88
2004-03-11 07:56:20 51°14.707 2°44.713 6.2 44 1.5 102130 88
2004-03-11 07:56:26 51°14.703 2°44.673 6 228 1.5 102130 88
2004-03-11 07:56:30 51°14.701 2°44.647 6.8 313 1.5 102120 88
2004-03-11 07:56:36 51°14.696 2°44.608 6.1 313 1.5 102120 88
2004-03-11 07:56:40 51°14.693 2°44.582 6.6 310 1.5 102120 88
2004-03-11 07:56:44 51°14.691 2°44.556 6.8 308 1.5 102120 88
2004-03-11 07:56:50 51°14.686 2°44.517 5.8 314 1.5 102120 88
2004-03-11 07:56:56 51°14.682 2°44.477 6.2 308 1.5 102120 88
2004-03-11 07:57:00 51°14.679 2°44.451 5.2 309 1.5 102120 88
2004-03-11 07:57:05 51°14.676 2°44.418 5.3 313 1.5 102120 88
2004-03-11 07:57:10 51°14.672 2°44.386 4.9 312 1.5 102120 88
2004-03-11 07:57:16 51°14.668 2°44.346 5.5 316 1.5 102120 88
2004-03-11 07:57:20 51°14.665 2°44.321 6.3 315 1.5 102120 88
2004-03-11 07:57:26 51°14.66 2°44.282 6.3 227 1.5 102120 88
2004-03-11 07:57:30 51°14.656 2°44.256 6.1 227 1.5 102120 88
2004-03-11 07:57:36 51°14.651 2°44.217 5.8 313 1.5 102120 88
2004-03-11 07:57:40 51°14.647 2°44.191 5.3 315 1.5 102120 88
2004-03-11 07:57:46 51°14.643 2°44.152 5.5 43 1.5 102120 88
2004-03-11 07:57:50 51°14.639 2°44.126 5.6 313 1.5 102120 88
2004-03-11 07:57:56 51°14.634 2°44.086 5 315 1.5 102120 88
2004-03-11 07:58:00 51°14.632 2°44.06 4.7 314 1.5 102120 88
2004-03-11 07:58:06 51°14.627 2°44.021 4.7 322 1.5 102120 88
2004-03-11 07:58:10 51°14.625 2°43.995 5.7 313 1.5 102120 88
2004-03-11 07:58:14 51°14.621 2°43.968 5.5 321 1.5 102120 88
2004-03-11 07:58:21 51°14.617 2°43.923 6.5 314 1.5 102120 88
2004-03-11 07:58:25 51°14.613 2°43.896 5.4 227 1.5 102120 88
2004-03-11 07:58:29 51°14.611 2°43.87 6.8 316 1.5 102130 88
2004-03-11 07:58:36 51°14.605 2°43.825 6 42 1.5 102130 88
2004-03-11 07:58:41 51°14.602 2°43.792 6.6 310 1.5 102120 88
2004-03-11 07:58:46 51°14.598 2°43.759 6.4 311 1.5 102120 88
2004-03-11 07:58:50 51°14.595 2°43.733 7.2 303 1.5 102120 88
2004-03-11 07:58:54 51°14.592 2°43.707 5.9 303 1.5 102120 88
2004-03-11 07:59:00 51°14.588 2°43.668 6.3 309 1.5 102120 88
2004-03-11 07:59:06 51°14.583 2°43.628 5.8 307 1.5 102120 88
2004-03-11 07:59:10 51°14.58 2°43.602 5.7 305 1.5 102120 88
2004-03-11 07:59:16 51°14.576 2°43.562 5.7 304 1.5 102120 88
2004-03-11 07:59:20 51°14.572 2°43.536 5.6 308 1.5 102120 88
2004-03-11 07:59:26 51°14.568 2°43.497 6.1 307 1.5 102120 88
2004-03-11 07:59:30 51°14.564 2°43.47 5.2 304 1.5 102120 88
2004-03-11 07:59:34 51°14.562 2°43.444 5.8 304 1.5 102120 88
2004-03-11 07:59:40 51°14.556 2°43.404 5.2 304 1.4 102120 88
2004-03-11 07:59:45 51°14.553 2°43.371 5.4 305 1.4 102120 88
2004-03-11 07:59:50 51°14.549 2°43.339 5.2 301 1.4 102130 88
2004-03-11 07:59:56 51°14.544 2°43.299 5.8 314 1.4 102130 88
2004-03-11 08:00:01 51°14.539 2°43.266 5.7 315 1.4 102120 88
2004-03-11 08:00:06 51°14.536 2°43.233 5.9 315 1.4 102120 88
2004-03-11 08:00:10 51°14.532 2°43.206 6.3 311 1.4 102120 88
2004-03-11 08:00:16 51°14.527 2°43.167 6 307 1.4 102120 88
2004-03-11 08:00:20 51°14.524 2°43.14 6.4 309 1.4 102120 88
2004-03-11 08:00:26 51°14.519 2°43.101 6.2 312 1.4 102120 88
2004-03-11 08:00:30 51°14.516 2°43.074 6 309 1.4 102120 88
2004-03-11 08:00:36 51°14.512 2°43.035 5.7 309 1.4 102120 88
2004-03-11 08:00:40 51°14.508 2°43.008 5.4 309 1.4 102120 88
2004-03-11 08:00:45 51°14.504 2°42.975 6.9 229 1.4 102120 88
2004-03-11 08:00:50 51°14.499 2°42.942 5.9 309 1.4 102120 88
2004-03-11 08:00:56 51°14.495 2°42.903 5.8 312 1.4 102120 88
2004-03-11 08:01:00 51°14.492 2°42.876 6.3 309 1.4 102120 88
2004-03-11 08:01:06 51°14.487 2°42.837 5.8 304 1.4 102120 88
2004-03-11 08:01:10 51°14.484 2°42.81 6.4 305 1.5 102120 88
2004-03-11 08:01:16 51°14.478 2°42.771 5.5 308 1.5 102120 88
2004-03-11 08:01:20 51°14.475 2°42.744 5.7 299 1.5 102120 88
2004-03-11 08:01:26 51°14.471 2°42.705 5.7 302 1.5 102120 88
2004-03-11 08:01:30 51°14.467 2°42.679 5.7 302 1.5 102120 88
2004-03-11 08:01:36 51°14.463 2°42.639 4.7 301 1.5 102120 88
2004-03-11 08:01:40 51°14.46 2°42.613 5 308 1.4 102120 88
2004-03-11 08:01:46 51°14.455 2°42.573 5 308 1.4 102120 88
2004-03-11 08:01:50 51°14.452 2°42.547 5.6 303 1.4 102130 88
2004-03-11 08:01:56 51°14.447 2°42.507 5.2 309 1.4 102130 88
2004-03-11 08:02:00 51°14.444 2°42.481 5.3 312 1.4 102120 88
2004-03-11 08:02:05 51°14.441 2°42.448 5.2 305 1.4 102120 88
2004-03-11 08:02:10 51°14.437 2°42.415 5 313 1.5 102130 88
2004-03-11 08:02:16 51°14.433 2°42.375 5 308 1.5 102130 88
2004-03-11 08:02:21 51°14.429 2°42.342 4.4 308 1.5 102120 88
2004-03-11 08:02:25 51°14.426 2°42.316 4.2 308 1.5 102120 88
2004-03-11 08:02:30 51°14.423 2°42.283 4.6 315 1.5 102130 88
2004-03-11 08:02:36 51°14.419 2°42.243 4.7 305 1.5 102130 88
2004-03-11 08:02:40 51°14.417 2°42.216 5.4 305 1.5 102120 88
2004-03-11 08:02:46 51°14.412 2°42.177 4.5 313 1.5 102120 88
2004-03-11 08:02:50 51°14.41 2°42.15 5.2 304 1.5 102120 88
2004-03-11 08:02:56 51°14.406 2°42.111 4.4 311 1.5 102120 88
2004-03-11 08:03:01 51°14.403 2°42.078 5.2 308 1.5 102120 88
2004-03-11 08:03:06 51°14.4 2°42.045 4.7 308 1.5 102120 88
2004-03-11 08:03:10 51°14.397 2°42.018 5.9 308 1.5 102120 88
2004-03-11 08:03:16 51°14.394 2°41.979 5.5 313 1.5 102120 88
2004-03-11 08:03:20 51°14.391 2°41.952 6 314 1.5 102120 88
2004-03-11 08:03:26 51°14.388 2°41.913 6.4 313 1.5 102120 88
2004-03-11 08:03:30 51°14.384 2°41.886 6.6 311 1.5 102130 88
2004-03-11 08:03:36 51°14.382 2°41.846 6.1 305 1.5 102130 88
2004-03-11 08:03:40 51°14.378 2°41.82 5.3 310 1.5 102120 88
2004-03-11 08:03:46 51°14.375 2°41.781 5.4 311 1.5 102120 88
2004-03-11 08:03:50 51°14.372 2°41.754 5.6 311 1.5 102160 88
2004-03-11 08:03:56 51°14.368 2°41.714 5.7 308 1.5 102160 88
2004-03-11 08:04:01 51°14.365 2°41.681 6.4 306 1.5 102140 88
2004-03-11 08:04:06 51°14.363 2°41.648 5.3 307 1.5 102140 88
2004-03-11 08:04:10 51°14.36 2°41.622 5.8 307 1.5 102120 88
2004-03-11 08:04:14 51°14.358 2°41.595 5.2 310 1.5 102120 88
2004-03-11 08:04:20 51°14.354 2°41.556 5.6 310 1.5 102120 88
2004-03-11 08:04:26 51°14.351 2°41.516 5.1 41 1.5 102120 88
2004-03-11 08:04:30 51°14.348 2°41.489 5.6 310 1.5 102120 88
2004-03-11 08:04:36 51°14.345 2°41.449 5.1 307 1.5 102120 88
2004-03-11 08:04:40 51°14.343 2°41.422 5.5 306 1.5 102120 88
2004-03-11 08:04:45 51°14.34 2°41.39 5 314 1.5 102120 88
2004-03-11 08:04:50 51°14.337 2°41.356 4.9 304 1.5 102120 88
2004-03-11 08:04:54 51°14.335 2°41.33 4.8 309 1.5 102120 88
2004-03-11 08:05:00 51°14.331 2°41.29 4.6 312 1.5 102120 88
2004-03-11 08:05:06 51°14.328 2°41.25 5.4 305 1.5 102120 88
2004-03-11 08:05:10 51°14.326 2°41.223 5.1 295 1.5 102130 88
2004-03-11 08:05:14 51°14.323 2°41.197 4.5 299 1.5 102130 88
2004-03-11 08:05:20 51°14.32 2°41.157 4.2 299 1.5 102130 88
2004-03-11 08:05:26 51°14.317 2°41.117 4.2 305 1.5 102130 88
2004-03-11 08:05:30 51°14.315 2°41.091 4.7 43 1.5 102120 88
2004-03-11 08:05:36 51°14.311 2°41.051 4.2 315 1.5 102120 88
2004-03-11 08:05:40 51°14.309 2°41.024 4.6 307 1.5 102120 88
2004-03-11 08:05:46 51°14.305 2°40.984 6.1 41 1.5 102120 88
2004-03-11 08:05:50 51°14.304 2°40.958 5.8 311 1.5 102120 88
2004-03-11 08:05:56 51°14.3 2°40.918 5.6 303 1.5 102120 88
2004-03-11 08:06:00 51°14.298 2°40.891 4.6 304 1.5 102130 88
2004-03-11 08:06:04 51°14.296 2°40.865 5.3 311 1.5 102130 88
2004-03-11 08:06:10 51°14.293 2°40.825 5.5 306 1.5 102130 88
2004-03-11 08:06:16 51°14.289 2°40.785 5.4 310 1.5 102130 88
2004-03-11 08:06:20 51°14.287 2°40.759 4.9 315 1.5 102120 88
2004-03-11 08:06:26 51°14.283 2°40.719 5 303 1.5 102120 88
2004-03-11 08:06:30 51°14.281 2°40.693 5.1 310 1.5 102120 88
2004-03-11 08:06:34 51°14.278 2°40.666 4.8 314 1.5 102120 88
2004-03-11 08:06:40 51°14.275 2°40.626 5 229 1.5 102130 88
2004-03-11 08:06:46 51°14.271 2°40.587 5.3 309 1.5 102130 88
2004-03-11 08:06:50 51°14.27 2°40.561 4.9 227 1.5 102120 88
2004-03-11 08:06:56 51°14.266 2°40.521 5.1 313 1.5 102120 88
2004-03-11 08:07:00 51°14.264 2°40.494 4.5 311 1.5 102130 88
2004-03-11 08:07:06 51°14.261 2°40.455 5.1 230 1.5 102130 88
2004-03-11 08:07:11 51°14.258 2°40.421 4.7 306 1.5 102120 88
2004-03-11 08:07:16 51°14.256 2°40.388 4.8 305 1.5 102120 88
2004-03-11 08:07:20 51°14.254 2°40.362 4.6 312 1.5 102120 88
2004-03-11 08:07:26 51°14.251 2°40.322 6 314 1.5 102120 88
2004-03-11 08:07:30 51°14.249 2°40.295 5 314 1.5 102120 88
2004-03-11 08:07:36 51°14.245 2°40.256 5.6 314 1.5 102120 88
2004-03-11 08:07:40 51°14.243 2°40.229 4.6 316 1.5 102130 88
2004-03-11 08:07:46 51°14.24 2°40.19 5.3 306 1.5 102130 88
2004-03-11 08:07:50 51°14.238 2°40.164 5.2 301 1.5 102130 88
2004-03-11 08:07:56 51°14.235 2°40.125 4.8 309 1.5 102130 88
2004-03-11 08:08:01 51°14.232 2°40.092 5.2 304 1.5 102120 88
2004-03-11 08:08:06 51°14.23 2°40.059 4.7 226 1.5 102120 88
2004-03-11 08:08:10 51°14.228 2°40.032 4.6 311 1.5 102120 88
2004-03-11 08:08:16 51°14.225 2°39.992 4.7 232 1.5 102120 88
2004-03-11 08:08:20 51°14.223 2°39.965 5.1 306 1.5 102120 88
2004-03-11 08:08:26 51°14.22 2°39.925 5.1 306 1.5 102120 88
2004-03-11 08:08:30 51°14.218 2°39.898 5.2 229 1.5 102130 88
2004-03-11 08:08:36 51°14.216 2°39.858 5.9 299 1.5 102130 88
2004-03-11 08:08:41 51°14.213 2°39.826 5.4 300 1.5 102120 88
2004-03-11 08:08:45 51°14.211 2°39.8 5.3 298 1.5 102120 88
2004-03-11 08:08:50 51°14.208 2°39.767 5.4 299 1.5 102130 88
2004-03-11 08:08:56 51°14.205 2°39.727 4.8 300 1.5 102130 88
2004-03-11 08:09:00 51°14.202 2°39.701 4.2 290 1.5 102120 88
2004-03-11 08:09:06 51°14.199 2°39.662 5.7 299 1.5 102120 88
2004-03-11 08:09:10 51°14.197 2°39.636 5.2 298 1.5 102120 88
2004-03-11 08:09:16 51°14.194 2°39.596 5.3 299 1.5 102120 88
2004-03-11 08:09:20 51°14.19 2°39.57 4.9 309 1.5 102120 88
2004-03-11 08:09:26 51°14.187 2°39.53 4.8 297 1.5 102120 88
2004-03-11 08:09:31 51°14.185 2°39.498 3.4 297 1.5 102120 88
2004-03-11 08:09:36 51°14.182 2°39.465 4.4 303 1.5 102120 88
2004-03-11 08:09:41 51°14.179 2°39.433 4.8 310 1.5 102130 88
2004-03-11 08:09:46 51°14.176 2°39.4 4.2 305 1.5 102130 88
2004-03-11 08:09:50 51°14.174 2°39.373 4.4 307 1.5 102130 88
2004-03-11 08:09:56 51°14.172 2°39.334 3.9 300 1.5 102130 88
2004-03-11 08:10:00 51°14.17 2°39.309 4.5 297 1.5 102120 88
2004-03-11 08:10:06 51°14.167 2°39.269 3.9 305 1.5 102120 88
2004-03-11 08:10:11 51°14.164 2°39.236 4.1 300 1.6 102120 88
2004-03-11 08:10:14 51°14.163 2°39.216 4 304 1.6 102120 88
2004-03-11 08:10:20 51°14.159 2°39.177 4 313 1.5 102120 88
2004-03-11 08:10:26 51°14.156 2°39.139 4.5 301 1.5 102120 88
2004-03-11 08:10:30 51°14.154 2°39.113 4.4 305 1.5 102120 88
2004-03-11 08:10:36 51°14.15 2°39.074 4.5 311 1.5 102120 88
2004-03-11 08:10:40 51°14.147 2°39.047 4.7 315 1.5 102130 88
2004-03-11 08:10:46 51°14.145 2°39.009 5.6 311 1.5 102130 88
2004-03-11 08:10:50 51°14.142 2°38.983 4.5 306 1.5 102120 88
2004-03-11 08:10:56 51°14.139 2°38.943 4.7 311 1.5 102120 88
2004-03-11 08:11:00 51°14.136 2°38.917 6.7 304 1.5 102120 88
2004-03-11 08:11:06 51°14.134 2°38.877 6.4 288 1.5 102120 88
2004-03-11 08:11:10 51°14.132 2°38.85 4.9 286 1.5 102120 88
2004-03-11 08:11:16 51°14.129 2°38.811 4.4 294 1.5 102120 88
2004-03-11 08:11:21 51°14.127 2°38.779 4.5 298 1.6 102120 88
2004-03-11 08:11:26 51°14.124 2°38.745 5.3 298 1.6 102120 88
2004-03-11 08:11:30 51°14.122 2°38.719 5.2 300 1.6 102120 88
2004-03-11 08:11:36 51°14.119 2°38.678 4.1 311 1.6 102120 88
2004-03-11 08:11:40 51°14.117 2°38.651 5.4 305 1.6 102120 88
2004-03-11 08:11:46 51°14.113 2°38.61 5 299 1.6 102120 88
2004-03-11 08:11:51 51°14.111 2°38.576 5.2 302 1.6 102120 88
2004-03-11 08:11:54 51°14.109 2°38.555 5 306 1.6 102120 88
2004-03-11 08:12:00 51°14.106 2°38.515 4.9 300 1.5 102110 88
2004-03-11 08:12:06 51°14.103 2°38.475 5.1 292 1.5 102110 88
2004-03-11 08:12:10 51°14.1 2°38.448 5.8 297 1.5 102120 88
2004-03-11 08:12:16 51°14.095 2°38.408 5.8 304 1.5 102120 88
2004-03-11 08:12:20 51°14.091 2°38.382 6 303 1.6 102120 88
2004-03-11 08:12:26 51°14.083 2°38.343 6.5 303 1.6 102120 88
2004-03-11 08:12:30 51°14.078 2°38.319 6.7 305 1.5 102120 87
2004-03-11 08:12:36 51°14.069 2°38.28 6.9 309 1.5 102120 87
2004-03-11 08:12:40 51°14.062 2°38.256 6.2 305 1.5 102110 87
2004-03-11 08:12:46 51°14.052 2°38.219 7.7 313 1.5 102110 87
2004-03-11 08:12:50 51°14.045 2°38.195 7.7 313 1.5 102110 87
2004-03-11 08:12:56 51°14.035 2°38.159 7.7 309 1.5 102110 87
2004-03-11 08:13:00 51°14.027 2°38.136 6.8 313 1.5 102120 87
2004-03-11 08:13:06 51°14.016 2°38.1 6.9 308 1.5 102120 87
2004-03-11 08:13:10 51°14.008 2°38.076 7.1 309 1.5 102100 87
2004-03-11 08:13:16 51°13.999 2°38.04 6.7 303 1.5 102100 87
2004-03-11 08:13:20 51°13.991 2°38.017 6.5 319 1.5 102110 87
2004-03-11 08:13:25 51°13.983 2°37.985 7.8 306 1.5 102110 87
2004-03-11 08:13:30 51°13.974 2°37.956 7.3 311 1.5 102100 87
2004-03-11 08:13:36 51°13.965 2°37.919 7.1 310 1.5 102100 87
2004-03-11 08:13:40 51°13.958 2°37.895 7.9 308 1.5 102110 87
2004-03-11 08:13:46 51°13.948 2°37.858 6.9 228 1.5 102110 87
2004-03-11 08:13:50 51°13.941 2°37.834 6.4 312 1.5 102100 87
2004-03-11 08:13:54 51°13.935 2°37.809 7 310 1.5 102100 87
2004-03-11 08:14:00 51°13.925 2°37.772 6.5 311 1.5 102100 87
2004-03-11 08:14:06 51°13.915 2°37.735 6.3 308 1.5 102100 87
2004-03-11 08:14:10 51°13.908 2°37.71 6.7 311 1.5 102100 87
2004-03-11 08:14:16 51°13.898 2°37.673 6.8 307 1.5 102100 87
2004-03-11 08:14:21 51°13.89 2°37.643 6.2 308 1.5 102110 87
2004-03-11 08:14:26 51°13.882 2°37.611 7.4 304 1.5 102110 87
2004-03-11 08:14:29 51°13.877 2°37.592 6.3 310 1.5 102100 87
2004-03-11 08:14:36 51°13.865 2°37.549 6.4 308 1.5 102100 87
2004-03-11 08:14:40 51°13.859 2°37.524 7.1 314 1.5 102110 87
2004-03-11 08:14:44 51°13.852 2°37.499 6.4 314 1.5 102110 87
2004-03-11 08:14:50 51°13.843 2°37.462 7.1 312 1.5 102110 87
2004-03-11 08:14:56 51°13.833 2°37.425 6 311 1.5 102110 87
2004-03-11 08:15:00 51°13.827 2°37.4 6.5 314 1.5 102110 87
2004-03-11 08:15:06 51°13.818 2°37.363 6.4 313 1.5 102110 87
2004-03-11 08:15:10 51°13.811 2°37.339 7.4 313 1.5 102110 87
2004-03-11 08:15:14 51°13.804 2°37.314 7.6 316 1.5 102110 87
2004-03-11 08:15:21 51°13.793 2°37.272 6.9 315 1.5 102110 87
2004-03-11 08:15:25 51°13.786 2°37.247 7.7 228 1.5 102110 87
2004-03-11 08:15:30 51°13.779 2°37.216 6.3 316 1.6 102110 87
2004-03-11 08:15:36 51°13.769 2°37.179 7.1 318 1.6 102110 87
2004-03-11 08:15:40 51°13.762 2°37.155 8.4 315 1.6 102110 87
2004-03-11 08:15:46 51°13.752 2°37.118 8 314 1.6 102110 87
2004-03-11 08:15:50 51°13.746 2°37.094 7.8 314 1.6 102110 87
2004-03-11 08:15:56 51°13.736 2°37.057 8.6 312 1.6 102110 87
2004-03-11 08:16:00 51°13.729 2°37.033 6.9 227 1.6 102100 88
2004-03-11 08:16:06 51°13.72 2°36.996 7.4 313 1.6 102100 88
2004-03-11 08:16:10 51°13.714 2°36.971 7.3 40 1.6 102100 88
2004-03-11 08:16:16 51°13.704 2°36.934 7.5 226 1.6 102100 88
2004-03-11 08:16:20 51°13.698 2°36.91 8.1 314 1.6 102100 88
2004-03-11 08:16:26 51°13.688 2°36.873 7 308 1.6 102100 88
2004-03-11 08:16:30 51°13.682 2°36.848 7 313 1.6 102100 88
2004-03-11 08:16:36 51°13.672 2°36.811 6.2 41 1.6 102100 88
2004-03-11 08:16:40 51°13.666 2°36.785 7.9 42 1.6 102100 88
2004-03-11 08:16:46 51°13.656 2°36.747 8.2 316 1.6 102100 88
2004-03-11 08:16:50 51°13.65 2°36.722 8.3 316 1.6 102110 88
2004-03-11 08:16:56 51°13.641 2°36.685 7.9 314 1.6 102110 88
2004-03-11 08:17:00 51°13.635 2°36.66 7.1 313 1.6 102110 88
2004-03-11 08:17:06 51°13.625 2°36.622 7.2 311 1.6 102110 88
2004-03-11 08:17:10 51°13.619 2°36.598 7.3 316 1.6 102100 88
2004-03-11 08:17:16 51°13.61 2°36.56 9 314 1.6 102100 88
2004-03-11 08:17:20 51°13.603 2°36.535 8 227 1.6 102110 88
2004-03-11 08:17:25 51°13.595 2°36.504 7.9 311 1.6 102110 88
2004-03-11 08:17:30 51°13.587 2°36.473 6.7 228 1.6 102110 88
2004-03-11 08:17:34 51°13.581 2°36.448 8.3 312 1.6 102110 88
2004-03-11 08:17:41 51°13.569 2°36.405 6.7 227 1.6 102110 88
2004-03-11 08:17:45 51°13.563 2°36.38 8.1 309 1.6 102110 88
2004-03-11 08:17:50 51°13.555 2°36.349 7.2 314 1.6 102100 88
2004-03-11 08:17:56 51°13.545 2°36.312 7.7 309 1.6 102100 88
2004-03-11 08:18:00 51°13.539 2°36.287 7 310 1.6 102110 88
2004-03-11 08:18:06 51°13.53 2°36.25 7.7 306 1.6 102110 88
2004-03-11 08:18:10 51°13.523 2°36.226 6.5 309 1.6 102110 88
2004-03-11 08:18:14 51°13.517 2°36.201 6.4 305 1.6 102110 88
2004-03-11 08:18:21 51°13.506 2°36.157 7.1 311 1.6 102110 88
2004-03-11 08:18:26 51°13.498 2°36.126 6.9 312 1.6 102110 88
2004-03-11 08:18:30 51°13.492 2°36.102 6.6 307 1.6 102100 88
2004-03-11 08:18:34 51°13.486 2°36.077 6.7 311 1.6 102100 88
2004-03-11 08:18:41 51°13.475 2°36.033 6.4 312 1.5 102110 88
2004-03-11 08:18:45 51°13.469 2°36.008 6.1 312 1.5 102110 88
2004-03-11 08:18:50 51°13.46 2°35.978 7.5 228 1.6 102100 88
2004-03-11 08:18:56 51°13.452 2°35.94 7.8 227 1.6 102100 88
2004-03-11 08:19:01 51°13.443 2°35.91 6.4 227 1.6 102100 88
2004-03-11 08:19:06 51°13.436 2°35.878 7.7 312 1.6 102100 88
2004-03-11 08:19:10 51°13.429 2°35.854 6.3 229 1.6 102110 88
2004-03-11 08:19:16 51°13.419 2°35.817 7 313 1.6 102110 88
2004-03-11 08:19:20 51°13.413 2°35.793 6.5 310 1.6 102110 88
2004-03-11 08:19:24 51°13.407 2°35.768 6.5 306 1.6 102110 88
2004-03-11 08:19:30 51°13.396 2°35.731 5 314 1.6 102110 88
2004-03-11 08:19:36 51°13.386 2°35.695 6.8 310 1.6 102110 88
2004-03-11 08:19:41 51°13.377 2°35.665 5.7 311 1.5 102100 88
2004-03-11 08:19:45 51°13.37 2°35.641 6.7 311 1.5 102100 88
2004-03-11 08:19:50 51°13.361 2°35.611 5.9 315 1.6 102110 88
2004-03-11 08:19:54 51°13.354 2°35.587 7.9 317 1.6 102110 88
2004-03-11 08:20:00 51°13.342 2°35.552 6.6 313 1.5 102110 88
2004-03-11 08:20:06 51°13.33 2°35.517 7.1 311 1.5 102110 88
2004-03-11 08:20:10 51°13.323 2°35.493 7.6 313 1.6 102100 88
2004-03-11 08:20:16 51°13.311 2°35.458 7.7 307 1.6 102100 88
2004-03-11 08:20:20 51°13.302 2°35.435 7.7 315 1.6 102100 88
2004-03-11 08:20:26 51°13.29 2°35.401 8.1 307 1.6 102100 88
2004-03-11 08:20:30 51°13.281 2°35.379 7.4 318 1.6 102100 88
2004-03-11 08:20:36 51°13.269 2°35.344 8.6 311 1.6 102100 88
2004-03-11 08:20:40 51°13.26 2°35.321 8.4 312 1.6 102100 88
2004-03-11 08:20:46 51°13.247 2°35.288 8 306 1.6 102100 88
2004-03-11 08:20:50 51°13.239 2°35.266 9.1 313 1.6 102090 88
2004-03-11 08:20:54 51°13.229 2°35.245 8.5 319 1.6 102090 88
2004-03-11 08:21:00 51°13.215 2°35.212 9.5 309 1.6 102090 88
2004-03-11 08:21:05 51°13.202 2°35.185 8.9 313 1.6 102090 88
2004-03-11 08:21:10 51°13.19 2°35.158 8.6 311 1.6 102090 88
2004-03-11 08:21:16 51°13.175 2°35.127 9 310 1.6 102090 88
2004-03-11 08:21:21 51°13.163 2°35.1 9.8 311 1.6 102090 88
2004-03-11 08:21:26 51°13.15 2°35.076 9.5 312 1.6 102090 88
2004-03-11 08:21:30 51°13.14 2°35.055 9.3 43 1.6 102090 88
2004-03-11 08:21:36 51°13.123 2°35.025 9.4 315 1.6 102090 88
2004-03-11 08:21:40 51°13.112 2°35.007 10.1 313 1.6 102090 88
2004-03-11 08:21:46 51°13.095 2°34.98 8.7 227 1.6 102090 88
2004-03-11 08:21:50 51°13.083 2°34.961 9.3 308 1.6 102090 88
2004-03-11 08:21:56 51°13.065 2°34.935 9.2 315 1.6 102090 88
2004-03-11 08:22:00 51°13.052 2°34.917 9.3 320 1.6 102080 88
2004-03-11 08:22:06 51°13.034 2°34.891 9.9 317 1.6 102080 88
2004-03-11 08:22:10 51°13.021 2°34.877 8.9 41 1.6 102090 88
2004-03-11 08:22:16 51°13.003 2°34.852 9.4 316 1.6 102090 88
2004-03-11 08:22:20 51°12.99 2°34.836 10 227 1.6 102090 88
2004-03-11 08:22:26 51°12.971 2°34.812 10.3 325 1.6 102090 88
2004-03-11 08:22:30 51°12.958 2°34.797 10.8 319 1.6 102130 88
2004-03-11 08:22:35 51°12.942 2°34.779 9.5 319 1.6 102130 88
2004-03-11 08:22:40 51°12.926 2°34.759 9.6 323 1.6 102120 88
2004-03-11 08:22:44 51°12.913 2°34.744 10.6 320 1.6 102120 88
2004-03-11 08:22:50 51°12.894 2°34.72 11.2 317 1.6 102120 88
2004-03-11 08:22:56 51°12.875 2°34.697 10.4 317 1.6 102120 88
2004-03-11 08:23:00 51°12.862 2°34.683 9.8 318 1.6 102090 88
2004-03-11 08:23:06 51°12.843 2°34.659 10.7 228 1.6 102090 88
2004-03-11 08:23:10 51°12.83 2°34.643 10.8 314 1.6 102090 88
2004-03-11 08:23:16 51°12.811 2°34.62 10 39 1.6 102090 88
2004-03-11 08:23:21 51°12.796 2°34.601 9.7 319 1.6 102090 88
2004-03-11 08:23:26 51°12.78 2°34.582 11 316 1.6 102090 88
2004-03-11 08:23:30 51°12.767 2°34.566 10.2 317 1.6 102090 88
2004-03-11 08:23:36 51°12.748 2°34.545 9.5 43 1.6 102090 88
2004-03-11 08:23:40 51°12.735 2°34.529 9.8 43 1.6 102130 88
2004-03-11 08:23:46 51°12.717 2°34.505 10.1 42 1.6 102130 88
2004-03-11 08:23:50 51°12.704 2°34.49 9.1 228 1.6 102080 88
2004-03-11 08:23:56 51°12.686 2°34.465 9.2 44 1.6 102080 88
2004-03-11 08:24:01 51°12.67 2°34.446 8.9 42 1.6 102090 88
2004-03-11 08:24:06 51°12.655 2°34.426 9.3 317 1.6 102090 88
2004-03-11 08:24:10 51°12.642 2°34.41 9.4 322 1.6 102080 88
2004-03-11 08:24:16 51°12.623 2°34.386 9.7 316 1.6 102080 88
2004-03-11 08:24:20 51°12.61 2°34.371 9.8 315 1.6 102090 88
2004-03-11 08:24:25 51°12.595 2°34.353 9.5 320 1.6 102090 88
2004-03-11 08:24:30 51°12.581 2°34.336 9.5 319 1.6 102090 88
2004-03-11 08:24:36 51°12.564 2°34.318 9.7 319 1.6 102090 88
2004-03-11 08:24:41 51°12.552 2°34.306 9.8 322 1.6 102090 88
2004-03-11 08:24:46 51°12.54 2°34.295 9.6 321 1.6 102090 88
2004-03-11 08:24:50 51°12.531 2°34.288 10.5 322 1.6 102120 88
2004-03-11 08:24:56 51°12.518 2°34.28 9.6 323 1.6 102120 88
2004-03-11 08:25:00 51°12.51 2°34.275 9 322 1.6 102120 88
2004-03-11 08:25:05 51°12.501 2°34.271 9.8 327 1.6 102120 88
2004-03-11 08:25:10 51°12.491 2°34.267 9 326 1.6 102130 88
2004-03-11 08:25:16 51°12.481 2°34.265 9 331 1.6 102130 88
2004-03-11 08:25:20 51°12.475 2°34.263 9.4 327 1.6 102130 88
2004-03-11 08:25:26 51°12.466 2°34.261 8.9 326 1.6 102130 88
2004-03-11 08:25:30 51°12.46 2°34.26 8.6 324 1.6 102130 88
2004-03-11 08:25:36 51°12.452 2°34.258 8.7 323 1.6 102130 88
2004-03-11 08:25:40 51°12.447 2°34.257 7.9 321 1.6 102130 88
2004-03-11 08:25:46 51°12.439 2°34.255 7.9 321 1.6 102130 88
2004-03-11 08:25:50 51°12.435 2°34.254 7.6 324 1.6 102130 88
2004-03-11 08:25:56 51°12.428 2°34.253 8.8 326 1.6 102130 88
2004-03-11 08:26:00 51°12.424 2°34.252 8 328 1.6 102130 88
2004-03-11 08:26:04 51°12.42 2°34.251 7.7 329 1.6 102130 88
2004-03-11 08:26:10 51°12.413 2°34.249 7.8 323 1.6 102130 88
2004-03-11 08:26:16 51°12.408 2°34.248 8.5 330 1.6 102130 88
2004-03-11 08:26:20 51°12.404 2°34.247 8.8 330 1.6 102130 88
2004-03-11 08:26:25 51°12.399 2°34.245 8.7 329 1.6 102130 88
2004-03-11 08:26:30 51°12.395 2°34.244 8.1 328 1.6 102140 88
2004-03-11 08:26:36 51°12.39 2°34.242 8.6 328 1.6 102140 88
2004-03-11 08:26:40 51°12.387 2°34.241 7.9 327 1.6 102140 88
2004-03-11 08:26:46 51°12.382 2°34.239 8 327 1.6 102140 88
2004-03-11 08:26:50 51°12.379 2°34.238 8.5 327 1.6 102130 88
2004-03-11 08:26:56 51°12.374 2°34.236 7.4 322 1.6 102130 88
2004-03-11 08:27:01 51°12.371 2°34.234 7.9 322 1.6 102130 88
2004-03-11 08:27:06 51°12.367 2°34.232 7.2 321 1.6 102130 88
2004-03-11 08:27:10 51°12.364 2°34.231 7.9 317 1.6 102130 88
2004-03-11 08:27:16 51°12.36 2°34.228 7.1 317 1.6 102130 88
2004-03-11 08:27:20 51°12.358 2°34.227 6.8 321 1.5 102130 88
2004-03-11 08:27:26 51°12.354 2°34.224 8 325 1.5 102130 88
2004-03-11 08:27:30 51°12.351 2°34.223 7.7 325 1.5 102130 88
2004-03-11 08:27:36 51°12.348 2°34.22 7.1 321 1.5 102130 88
2004-03-11 08:27:40 51°12.345 2°34.219 7.1 320 1.5 102130 88
2004-03-11 08:27:46 51°12.342 2°34.216 7.1 315 1.5 102130 88
2004-03-11 08:27:50 51°12.34 2°34.214 7 316 1.5 102130 88
2004-03-11 08:27:56 51°12.336 2°34.212 7.4 321 1.5 102130 88
2004-03-11 08:28:00 51°12.334 2°34.209 7.7 319 1.6 102130 88
2004-03-11 08:28:06 51°12.331 2°34.207 7.5 319 1.6 102130 88
2004-03-11 08:28:10 51°12.329 2°34.205 7.5 317 1.6 102130 88
2004-03-11 08:28:16 51°12.326 2°34.202 7.2 43 1.6 102130 88
2004-03-11 08:28:21 51°12.323 2°34.199 6.7 316 1.6 102130 88
2004-03-11 08:28:25 51°12.321 2°34.197 7.1 316 1.6 102130 88
2004-03-11 08:28:28 51°12.32 2°34.195 6.9 43 1.5 102130 88
2004-03-11 08:28:34 51°12.317 2°34.192 7.3 317 1.5 102130 88
2004-03-11 08:28:40 51°12.314 2°34.188 7 228 1.5 102130 88
2004-03-11 08:28:45 51°12.312 2°34.185 6.8 44 1.5 102130 88
2004-03-11 08:28:51 51°12.309 2°34.182 6.8 313 1.5 102130 88
2004-03-11 08:28:56 51°12.307 2°34.179 6.4 314 1.5 102130 88
2004-03-11 08:29:00 51°12.306 2°34.177 6.3 316 1.5 102130 88
2004-03-11 08:29:06 51°12.303 2°34.173 6.8 313 1.5 102130 88
2004-03-11 08:29:10 51°12.301 2°34.17 6.2 311 1.5 102130 88
2004-03-11 08:29:16 51°12.299 2°34.167 6.5 317 1.5 102130 88
2004-03-11 08:29:20 51°12.297 2°34.164 6.5 228 1.5 102130 88
2004-03-11 08:29:26 51°12.294 2°34.16 7 228 1.5 102130 88
2004-03-11 08:29:30 51°12.291 2°34.158 6.2 311 1.5 102130 88
2004-03-11 08:29:36 51°12.288 2°34.154 5.6 309 1.5 102130 88
2004-03-11 08:29:40 51°12.285 2°34.151 5.8 309 1.5 102130 88
2004-03-11 08:29:45 51°12.282 2°34.147 7.4 306 1.5 102130 88
2004-03-11 08:29:50 51°12.278 2°34.143 7.9 297 1.6 102130 88
2004-03-11 08:29:56 51°12.274 2°34.139 7.8 298 1.6 102130 88
2004-03-11 08:30:01 51°12.27 2°34.134 7.2 298 1.6 102130 88
2004-03-11 08:30:06 51°12.267 2°34.13 7.2 295 1.6 102130 88
2004-03-11 08:30:10 51°12.263 2°34.127 7.2 295 1.6 102130 88
2004-03-11 08:30:16 51°12.259 2°34.121 6.8 295 1.6 102130 88
2004-03-11 08:30:21 51°12.255 2°34.116 6.7 295 1.7 102130 88
2004-03-11 08:30:25 51°12.252 2°34.113 6.9 291 1.7 102130 88
2004-03-11 08:30:30 51°12.247 2°34.107 7.2 295 1.6 102130 88
2004-03-11 08:30:36 51°12.242 2°34.101 7.4 297 1.6 102130 88
2004-03-11 08:30:40 51°12.239 2°34.096 7 298 1.6 102130 88
2004-03-11 08:30:46 51°12.233 2°34.09 6.3 300 1.6 102130 88
2004-03-11 08:30:50 51°12.23 2°34.086 6.4 294 1.6 102130 88
2004-03-11 08:30:56 51°12.224 2°34.079 7.1 294 1.6 102130 88
2004-03-11 08:31:01 51°12.22 2°34.073 6.3 290 1.6 102130 88
2004-03-11 08:31:06 51°12.216 2°34.068 6.7 293 1.6 102130 88
2004-03-11 08:31:10 51°12.212 2°34.063 6.1 295 1.6 102130 88
2004-03-11 08:31:16 51°12.207 2°34.056 7 299 1.6 102130 88
2004-03-11 08:31:20 51°12.203 2°34.052 6.3 299 1.6 102130 88
2004-03-11 08:31:26 51°12.198 2°34.045 8 304 1.6 102130 88
2004-03-11 08:31:30 51°12.195 2°34.04 7.3 303 1.7 102130 88
2004-03-11 08:31:36 51°12.189 2°34.033 7.1 301 1.7 102130 88
2004-03-11 08:31:41 51°12.185 2°34.027 6.6 299 1.7 102130 88
2004-03-11 08:31:46 51°12.181 2°34.021 7.4 299 1.7 102130 88
2004-03-11 08:31:50 51°12.178 2°34.016 4.4 299 1.7 102130 88
2004-03-11 08:31:56 51°12.173 2°34.01 7 299 1.7 102130 88
2004-03-11 08:32:00 51°12.169 2°34.004 6.3 293 1.6 102130 88
2004-03-11 08:32:05 51°12.165 2°33.999 6.8 299 1.6 102130 88
2004-03-11 08:32:10 51°12.161 2°33.992 7.8 292 1.7 102130 88
2004-03-11 08:32:16 51°12.156 2°33.984 6.2 290 1.7 102130 88
2004-03-11 08:32:21 51°12.152 2°33.979 7.2 292 1.6 102120 88
2004-03-11 08:32:26 51°12.148 2°33.972 7.5 288 1.6 102120 88
2004-03-11 08:32:30 51°12.145 2°33.967 6.3 295 1.7 102120 88
2004-03-11 08:32:34 51°12.142 2°33.962 7.7 288 1.7 102120 88
2004-03-11 08:32:40 51°12.137 2°33.954 8.2 287 1.7 102130 88
2004-03-11 08:32:46 51°12.133 2°33.945 8 282 1.7 102130 88
2004-03-11 08:32:50 51°12.13 2°33.94 7.6 279 1.7 102130 88
2004-03-11 08:32:56 51°12.126 2°33.931 7.7 280 1.7 102130 88
2004-03-11 08:33:01 51°12.122 2°33.924 7.2 278 1.6 102130 88
2004-03-11 08:33:06 51°12.119 2°33.917 6.9 274 1.6 102130 88
2004-03-11 08:33:10 51°12.116 2°33.911 6.9 273 1.6 102130 88
2004-03-11 08:33:16 51°12.112 2°33.902 7.4 275 1.6 102130 88
2004-03-11 08:33:21 51°12.108 2°33.894 6.5 274 1.6 102130 88
2004-03-11 08:33:26 51°12.105 2°33.887 7.5 270 1.6 102130 88
2004-03-11 08:33:30 51°12.102 2°33.88 6.8 271 1.6 102130 88
2004-03-11 08:33:36 51°12.099 2°33.871 6 279 1.6 102130 88
2004-03-11 08:33:40 51°12.096 2°33.865 6.1 279 1.6 102130 88
2004-03-11 08:33:44 51°12.094 2°33.858 7.2 274 1.6 102130 88
2004-03-11 08:33:50 51°12.09 2°33.849 6.6 277 1.6 102130 88
2004-03-11 08:33:56 51°12.087 2°33.839 6.9 273 1.6 102130 88
2004-03-11 08:34:00 51°12.085 2°33.832 6.6 270 1.6 102130 88
2004-03-11 08:34:06 51°12.081 2°33.823 6.4 267 1.6 102130 88
2004-03-11 08:34:10 51°12.079 2°33.816 7.4 264 1.7 102130 88
2004-03-11 08:34:16 51°12.076 2°33.806 6.4 267 1.7 102130 88
2004-03-11 08:34:20 51°12.074 2°33.8 6.6 272 1.7 102130 88
2004-03-11 08:34:24 51°12.072 2°33.793 7.2 260 1.7 102130 88
2004-03-11 08:34:30 51°12.069 2°33.783 6 257 1.6 102130 88
2004-03-11 08:34:36 51°12.066 2°33.774 7.1 270 1.6 102130 88
2004-03-11 08:34:41 51°12.063 2°33.766 5.9 263 1.6 102130 88
2004-03-11 08:34:45 51°12.061 2°33.759 6.7 271 1.6 102130 88
2004-03-11 08:34:50 51°12.058 2°33.752 7.2 269 1.6 102130 88
2004-03-11 08:34:56 51°12.055 2°33.742 8.1 268 1.6 102130 88
2004-03-11 08:35:00 51°12.053 2°33.736 7.5 271 1.6 102130 88
2004-03-11 08:35:06 51°12.049 2°33.727 7.1 275 1.6 102130 88
2004-03-11 08:35:10 51°12.047 2°33.721 6.9 265 1.7 102130 88
2004-03-11 08:35:16 51°12.044 2°33.712 6.4 268 1.7 102130 88
2004-03-11 08:35:21 51°12.041 2°33.704 7.5 271 1.7 102130 88
2004-03-11 08:35:26 51°12.038 2°33.697 7.7 271 1.7 102130 88
2004-03-11 08:35:30 51°12.036 2°33.691 7.9 271 1.6 102130 88
2004-03-11 08:35:36 51°12.033 2°33.682 8.2 271 1.6 102130 88
2004-03-11 08:35:41 51°12.03 2°33.675 7.5 268 1.6 102130 88
2004-03-11 08:35:46 51°12.027 2°33.667 7.3 272 1.6 102130 88
2004-03-11 08:35:50 51°12.024 2°33.662 7.2 269 1.6 102130 88
2004-03-11 08:35:56 51°12.021 2°33.653 7.3 268 1.6 102130 88
2004-03-11 08:36:00 51°12.019 2°33.647 7.7 266 1.6 102130 88
2004-03-11 08:36:06 51°12.015 2°33.638 6 263 1.6 102130 88
2004-03-11 08:36:10 51°12.013 2°33.632 7.1 267 1.6 102130 88
2004-03-11 08:36:16 51°12.01 2°33.623 7.4 265 1.6 102130 88
2004-03-11 08:36:21 51°12.007 2°33.616 6.2 264 1.6 102130 88
2004-03-11 08:36:26 51°12.004 2°33.608 6.2 265 1.6 102130 88
2004-03-11 08:36:30 51°12.002 2°33.603 7.3 262 1.6 102130 88
2004-03-11 08:36:36 51°11.998 2°33.594 7.4 266 1.6 102130 88
2004-03-11 08:36:40 51°11.996 2°33.588 7.2 264 1.6 102130 88
2004-03-11 08:36:45 51°11.993 2°33.581 8.1 266 1.6 102130 88
2004-03-11 08:36:50 51°11.99 2°33.574 7.8 267 1.6 102130 88
2004-03-11 08:36:56 51°11.987 2°33.565 7.3 267 1.6 102130 88
2004-03-11 08:37:00 51°11.984 2°33.56 7.9 271 1.6 102130 88
2004-03-11 08:37:06 51°11.981 2°33.551 7.7 265 1.6 102130 88
2004-03-11 08:37:10 51°11.978 2°33.546 7.2 270 1.6 102130 88
2004-03-11 08:37:16 51°11.975 2°33.537 8 274 1.6 102130 88
2004-03-11 08:37:20 51°11.972 2°33.532 6.7 281 1.6 102120 88
2004-03-11 08:37:24 51°11.97 2°33.526 6.6 281 1.6 102120 88
2004-03-11 08:37:30 51°11.966 2°33.517 7 282 1.6 102130 88
2004-03-11 08:37:36 51°11.962 2°33.509 7.1 281 1.6 102130 88
2004-03-11 08:37:40 51°11.959 2°33.503 7 280 1.6 102130 88
2004-03-11 08:37:45 51°11.956 2°33.496 6.8 282 1.6 102130 88
2004-03-11 08:37:50 51°11.953 2°33.489 7.2 283 1.6 102130 88
2004-03-11 08:37:56 51°11.949 2°33.481 7.1 277 1.6 102130 88
2004-03-11 08:38:00 51°11.946 2°33.475 6.6 277 1.6 102120 88
2004-03-11 08:38:06 51°11.942 2°33.467 6.8 276 1.6 102120 88
2004-03-11 08:38:10 51°11.94 2°33.461 6.9 277 1.6 102130 88